createdAt,value
2023-01-20T00:02:08.016Z,9.00
2023-01-20T00:04:49.935Z,8.60
2023-01-20T00:07:26.837Z,8.10
2023-01-20T00:10:07.454Z,9.60
2023-01-20T00:12:49.651Z,7.90
2023-01-20T00:15:23.019Z,9.40
2023-01-20T00:18:08.311Z,8.80
2023-01-20T00:20:44.638Z,7.40
2023-01-20T00:23:26.787Z,8.90
2023-01-20T00:26:07.376Z,8.70
2023-01-20T00:28:43.357Z,9.50
2023-01-20T00:31:17.890Z,9.60
2023-01-20T00:33:55.146Z,8.10
2023-01-20T00:36:42.524Z,8.50
2023-01-20T00:39:16.963Z,7.50
2023-01-20T00:42:07.463Z,7.80
2023-01-20T00:45:04.704Z,8.10
2023-01-20T00:47:38.520Z,8.00
2023-01-20T00:50:21.686Z,8.90
2023-01-20T00:53:07.758Z,8.50
2023-01-20T00:55:55.933Z,8.60
2023-01-20T00:58:55.315Z,10.00
2023-01-20T01:01:44.168Z,9.70
2023-01-20T01:04:21.341Z,9.70
2023-01-20T01:06:58.247Z,10.50
2023-01-20T01:09:46.641Z,9.90
2023-01-20T01:12:27.699Z,9.90
2023-01-20T01:15:04.632Z,9.20
2023-01-20T01:18:00.853Z,8.10
2023-01-20T01:20:32.047Z,9.10
2023-01-20T01:23:15.057Z,10.30
2023-01-20T01:25:58.587Z,8.60
2023-01-20T01:28:41.251Z,8.40
2023-01-20T01:31:22.521Z,10.00
2023-01-20T01:34:01.033Z,9.20
2023-01-20T01:36:37.653Z,8.30
2023-01-20T01:39:14.628Z,8.50
2023-01-20T01:41:56.730Z,7.60
2023-01-20T01:44:31.445Z,8.40
2023-01-20T01:47:14.969Z,8.20
2023-01-20T01:49:47.907Z,8.70
2023-01-20T01:52:29.462Z,8.30
2023-01-20T01:55:00.185Z,8.10
2023-01-20T01:57:35.905Z,9.00
2023-01-20T02:00:08.169Z,8.10
2023-01-20T02:02:43.709Z,7.50
2023-01-20T02:05:15.402Z,8.90
2023-01-20T02:07:55.810Z,8.60
2023-01-20T02:10:26.359Z,7.80
2023-01-20T02:13:00.034Z,8.40
2023-01-20T02:15:38.918Z,8.10
2023-01-20T02:18:25.813Z,7.90
2023-01-20T02:21:35.596Z,7.20
2023-01-20T02:24:38.702Z,8.00
2023-01-20T02:27:51.673Z,7.40
2023-01-20T02:30:55.312Z,7.90
2023-01-20T02:34:03.975Z,7.80
2023-01-20T02:36:50.497Z,8.00
2023-01-20T02:39:50.222Z,7.10
2023-01-20T02:42:35.262Z,7.40
2023-01-20T02:45:30.366Z,7.90
2023-01-20T02:48:10.017Z,8.10
2023-01-20T02:51:00.824Z,6.20
2023-01-20T02:53:45.630Z,7.10
2023-01-20T02:56:17.232Z,7.20
2023-01-20T02:59:12.269Z,7.30
2023-01-20T03:04:42.390Z,7.60
2023-01-20T03:07:18.489Z,7.50
2023-01-20T03:09:57.435Z,7.60
2023-01-20T03:12:50.234Z,7.60
2023-01-20T03:16:00.867Z,6.40
2023-01-20T03:18:34.771Z,6.70
2023-01-20T03:21:17.044Z,7.80
2023-01-20T03:23:55.806Z,6.70
2023-01-20T03:26:36.609Z,6.60
2023-01-20T03:29:18.444Z,7.30
2023-01-20T03:31:58.916Z,8.30
2023-01-20T03:34:36.275Z,7.40
2023-01-20T03:37:12.053Z,7.00
2023-01-20T03:39:56.520Z,6.30
2023-01-20T03:43:12.092Z,7.80
2023-01-20T03:45:54.673Z,7.10
2023-01-20T03:48:53.873Z,7.20
2023-01-20T03:51:34.758Z,6.60
2023-01-20T03:54:08.857Z,7.10
2023-01-20T03:56:46.815Z,7.10
2023-01-20T03:59:17.381Z,7.30
2023-01-20T04:01:54.248Z,6.60
2023-01-20T04:04:40.034Z,6.70
2023-01-20T04:07:28.810Z,6.40
2023-01-20T04:10:06.862Z,6.60
2023-01-20T04:12:35.094Z,7.40
2023-01-20T04:15:03.588Z,5.90
2023-01-20T04:17:34.095Z,7.00
2023-01-20T04:20:12.016Z,6.60
2023-01-20T04:23:00.084Z,6.30
2023-01-20T04:25:37.647Z,7.60
2023-01-20T04:28:11.885Z,5.70
2023-01-20T04:30:47.846Z,5.30
2023-01-20T04:33:16.186Z,6.90
2023-01-20T04:35:53.220Z,5.80
2023-01-20T04:38:21.527Z,5.30
2023-01-20T04:40:54.607Z,6.30
2023-01-20T04:43:32.330Z,4.70
2023-01-20T04:46:20.728Z,4.60
2023-01-20T04:48:56.635Z,5.20
2023-01-20T04:51:44.226Z,7.80
2023-01-20T04:54:21.251Z,6.50
2023-01-20T04:56:58.637Z,5.60
2023-01-20T04:59:32.410Z,7.00
2023-01-20T05:02:21.393Z,7.60
2023-01-20T05:04:52.872Z,7.40
2023-01-20T05:07:45.025Z,9.80
2023-01-20T05:10:23.836Z,12.90
2023-01-20T05:12:54.877Z,12.70
2023-01-20T05:15:25.551Z,11.40
2023-01-20T05:18:09.419Z,32.10
2023-01-20T05:20:48.578Z,41.50
2023-01-20T05:23:32.885Z,33.60
2023-01-20T05:26:10.973Z,68.00
2023-01-20T05:28:43.240Z,37.70
2023-01-20T05:31:14.237Z,51.20
2023-01-20T05:33:42.798Z,44.30
2023-01-20T05:36:16.734Z,48.70
2023-01-20T05:38:47.807Z,47.20
2023-01-20T05:41:16.040Z,47.70
2023-01-20T05:43:49.757Z,41.60
2023-01-20T05:46:30.305Z,43.10
2023-01-20T05:48:58.874Z,32.70
2023-01-20T05:51:30.252Z,34.20
2023-01-20T05:54:07.736Z,34.00
2023-01-20T05:56:38.826Z,25.90
2023-01-20T05:59:12.854Z,27.90
2023-01-20T06:01:41.077Z,34.30
2023-01-20T06:04:09.595Z,25.30
2023-01-20T06:06:38.129Z,20.70
2023-01-20T06:09:06.777Z,19.60
2023-01-20T06:11:34.959Z,14.30
2023-01-20T06:14:03.134Z,13.40
2023-01-20T06:16:36.486Z,12.60
2023-01-20T06:19:04.591Z,13.10
2023-01-20T06:21:38.248Z,10.00
2023-01-20T06:24:15.059Z,10.00
2023-01-20T06:26:46.510Z,10.80
2023-01-20T06:29:17.963Z,10.70
2023-01-20T06:31:46.906Z,7.30
2023-01-20T06:34:15.088Z,6.20
2023-01-20T06:36:43.215Z,6.40
2023-01-20T06:39:11.333Z,8.70
2023-01-20T06:41:39.613Z,8.60
2023-01-20T06:44:07.767Z,9.70
2023-01-20T06:46:36.129Z,8.10
2023-01-20T06:49:04.409Z,6.30
2023-01-20T06:51:33.772Z,6.40
2023-01-20T06:54:02.212Z,6.50
2023-01-20T06:56:30.613Z,7.90
2023-01-20T06:58:58.930Z,5.80
2023-01-20T07:01:29.918Z,5.10
2023-01-20T07:03:58.233Z,6.50
2023-01-20T07:06:33.092Z,5.80
2023-01-20T07:09:06.627Z,5.90
2023-01-20T07:11:40.198Z,6.30
2023-01-20T07:14:11.099Z,4.80
2023-01-20T07:16:39.607Z,4.90
2023-01-20T07:19:11.091Z,6.60
2023-01-20T07:21:42.273Z,5.70
2023-01-20T07:24:10.933Z,6.90
2023-01-20T07:26:39.057Z,4.80
2023-01-20T07:29:10.362Z,4.80
2023-01-20T07:31:40.447Z,5.60
2023-01-20T07:34:14.265Z,4.10
2023-01-20T07:36:42.750Z,4.30
2023-01-20T07:39:11.843Z,4.50
2023-01-20T07:41:40.227Z,5.70
2023-01-20T07:44:10.960Z,5.50
2023-01-20T07:46:39.236Z,6.80
2023-01-20T07:49:07.645Z,4.90
2023-01-20T07:51:35.993Z,6.50
2023-01-20T07:54:09.459Z,5.70
2023-01-20T07:56:37.806Z,6.10
2023-01-20T07:59:06.044Z,5.80
2023-01-20T08:01:34.524Z,4.90
2023-01-20T08:04:03.073Z,5.10
2023-01-20T08:06:37.034Z,5.00
2023-01-20T08:09:08.893Z,5.50
2023-01-20T08:11:50.739Z,4.30
2023-01-20T08:14:24.748Z,4.40
2023-01-20T08:16:55.638Z,4.00
2023-01-20T08:19:24.035Z,7.00
2023-01-20T08:21:52.185Z,5.20
2023-01-20T08:24:23.505Z,6.50
2023-01-20T08:26:51.867Z,4.00
2023-01-20T08:29:20.042Z,4.80
2023-01-20T08:31:48.489Z,4.70
2023-01-20T08:34:19.183Z,4.30
2023-01-20T08:36:50.069Z,5.10
2023-01-20T08:39:19.232Z,5.20
2023-01-20T08:41:47.922Z,4.60
2023-01-20T08:44:16.816Z,4.50
2023-01-20T08:46:45.298Z,3.60
2023-01-20T08:49:15.097Z,5.00
2023-01-20T08:51:44.764Z,4.30
2023-01-20T08:54:25.740Z,5.40
2023-01-20T08:57:02.783Z,5.20
2023-01-20T08:59:42.562Z,5.00
2023-01-20T09:02:11.230Z,5.00
2023-01-20T09:04:39.415Z,5.30
2023-01-20T09:07:08.055Z,5.00
2023-01-20T09:09:36.699Z,5.00
2023-01-20T09:12:07.694Z,4.80
2023-01-20T09:14:35.927Z,4.50
2023-01-20T09:17:07.300Z,4.70
2023-01-20T09:19:35.520Z,4.00
2023-01-20T09:22:03.751Z,5.00
2023-01-20T09:24:32.211Z,4.60
2023-01-20T09:27:00.617Z,5.70
2023-01-20T09:29:28.922Z,4.60
2023-01-20T09:32:00.312Z,4.50
2023-01-20T09:34:32.303Z,3.80
2023-01-20T09:37:22.850Z,4.70
2023-01-20T09:40:12.295Z,5.60
2023-01-20T09:43:17.948Z,5.80
2023-01-20T09:46:01.495Z,4.70
2023-01-20T09:48:55.332Z,3.80
2023-01-20T09:51:49.584Z,4.10
2023-01-20T09:54:29.987Z,6.20
2023-01-20T09:56:58.477Z,4.60
2023-01-20T09:59:37.342Z,5.10
2023-01-20T10:02:07.739Z,5.70
2023-01-20T10:04:38.867Z,5.30
2023-01-20T10:07:11.751Z,5.50
2023-01-20T10:10:05.729Z,5.30
2023-01-20T10:12:35.336Z,6.30
2023-01-20T10:15:12.936Z,6.40
2023-01-20T10:17:49.812Z,4.50
2023-01-20T10:20:31.528Z,5.80
2023-01-20T10:23:07.787Z,5.40
2023-01-20T10:25:46.462Z,6.60
2023-01-20T10:28:16.356Z,16.60
2023-01-20T10:30:47.316Z,5.20
2023-01-20T10:33:20.316Z,4.50
2023-01-20T10:35:51.877Z,5.70
2023-01-20T10:38:41.963Z,6.00
2023-01-20T10:41:24.677Z,6.80
2023-01-20T10:43:52.736Z,5.50
2023-01-20T10:46:52.013Z,6.00
2023-01-20T10:49:42.453Z,5.50
2023-01-20T10:52:46.362Z,6.50
2023-01-20T10:55:58.078Z,5.40
2023-01-20T10:58:31.121Z,4.30
2023-01-20T11:01:02.825Z,5.20
2023-01-20T11:03:45.119Z,5.20
2023-01-20T11:06:20.691Z,6.80
2023-01-20T11:08:49.368Z,4.20
2023-01-20T11:11:22.420Z,5.80
2023-01-20T11:13:52.756Z,4.30
2023-01-20T11:16:25.122Z,5.60
2023-01-20T11:19:11.937Z,5.70
2023-01-20T11:21:41.749Z,4.80
2023-01-20T11:24:28.654Z,5.40
2023-01-20T11:27:06.119Z,5.30
2023-01-20T11:29:39.624Z,5.40
2023-01-20T11:32:33.741Z,8.00
2023-01-20T11:35:22.794Z,6.00
2023-01-20T11:37:51.272Z,5.30
2023-01-20T11:40:26.416Z,5.80
2023-01-20T11:42:54.893Z,4.30
2023-01-20T11:45:27.864Z,5.10
2023-01-20T11:48:16.865Z,5.90
2023-01-20T11:50:57.680Z,5.60
2023-01-20T11:53:31.898Z,5.20
2023-01-20T11:56:02.661Z,6.40
2023-01-20T11:58:34.866Z,7.50
2023-01-20T12:01:15.392Z,7.00
2023-01-20T12:03:54.919Z,6.00
2023-01-20T12:06:45.856Z,5.50
2023-01-20T12:09:16.379Z,5.30
2023-01-20T12:12:10.767Z,5.40
2023-01-20T12:14:52.632Z,5.00
2023-01-20T12:18:05.943Z,5.20
2023-01-20T12:21:17.880Z,6.90
2023-01-20T12:23:56.140Z,5.60
2023-01-20T12:26:34.091Z,5.40
2023-01-20T12:29:22.152Z,5.90
2023-01-20T12:31:50.794Z,5.70
2023-01-20T12:34:30.494Z,6.20
2023-01-20T12:37:08.079Z,4.40
2023-01-20T12:39:51.608Z,6.50
2023-01-20T12:42:57.060Z,4.90
2023-01-20T12:45:35.350Z,5.30
2023-01-20T12:48:25.681Z,5.30
2023-01-20T12:51:32.169Z,5.10
2023-01-20T12:54:06.896Z,5.60
2023-01-20T12:56:56.718Z,5.00
2023-01-20T12:59:32.389Z,5.50
2023-01-20T13:02:26.677Z,4.80
2023-01-20T13:05:23.200Z,6.70
2023-01-20T13:08:07.938Z,5.30
2023-01-20T13:11:24.735Z,6.30
2023-01-20T13:14:04.683Z,7.20
2023-01-20T13:16:51.063Z,5.40
2023-01-20T13:19:49.556Z,4.90
2023-01-20T13:22:24.362Z,4.00
2023-01-20T13:25:14.170Z,5.60
2023-01-20T13:27:51.397Z,6.40
2023-01-20T13:30:51.560Z,7.30
2023-01-20T13:33:51.918Z,5.00
2023-01-20T13:36:21.638Z,6.30
2023-01-20T13:39:33.350Z,6.00
2023-01-20T13:42:04.321Z,4.50
2023-01-20T13:45:14.844Z,5.80
2023-01-20T13:48:28.416Z,5.00
2023-01-20T13:51:17.078Z,6.20
2023-01-20T13:53:47.813Z,6.10
2023-01-20T13:56:27.093Z,5.50
2023-01-20T13:58:58.290Z,5.00
2023-01-20T14:01:27.567Z,7.20
2023-01-20T14:04:16.723Z,6.30
2023-01-20T14:06:59.119Z,6.40
2023-01-20T14:09:31.490Z,5.70
2023-01-20T14:12:00.139Z,6.90
2023-01-20T14:14:28.284Z,6.30
2023-01-20T14:16:56.889Z,5.60
2023-01-20T14:19:40.991Z,6.10
2023-01-20T14:22:32.127Z,6.40
2023-01-20T14:25:03.429Z,6.20
2023-01-20T14:27:45.745Z,5.10
2023-01-20T14:30:20.722Z,5.10
2023-01-20T14:32:49.430Z,5.10
2023-01-20T14:35:33.923Z,5.20
2023-01-20T14:38:14.853Z,6.40
2023-01-20T14:40:44.788Z,4.10
2023-01-20T14:43:22.121Z,4.60
2023-01-20T14:45:53.725Z,5.50
2023-01-20T14:48:33.808Z,3.90
2023-01-20T14:51:04.663Z,4.50
2023-01-20T14:53:33.484Z,3.90
2023-01-20T14:56:08.049Z,5.40
2023-01-20T14:58:38.645Z,4.90
2023-01-20T15:01:27.310Z,6.80
2023-01-20T15:03:59.538Z,6.10
2023-01-20T15:06:28.043Z,5.10
2023-01-20T15:09:16.667Z,6.10
2023-01-20T15:11:52.358Z,4.40
2023-01-20T15:14:30.332Z,5.50
2023-01-20T15:17:01.347Z,5.30
2023-01-20T15:19:33.264Z,4.50
2023-01-20T15:22:30.923Z,4.90
2023-01-20T15:25:19.188Z,5.00
2023-01-20T15:27:52.639Z,6.00
2023-01-20T15:30:27.577Z,7.20
2023-01-20T15:32:56.156Z,7.60
2023-01-20T15:35:30.141Z,5.90
2023-01-20T15:38:30.500Z,4.80
2023-01-20T15:41:01.938Z,5.00
2023-01-20T15:43:46.615Z,6.20
2023-01-20T15:46:24.848Z,5.70
2023-01-20T15:49:04.037Z,27.90
2023-01-20T15:51:43.820Z,42.00
2023-01-20T15:54:21.589Z,34.90
2023-01-20T15:57:25.796Z,96.70
2023-01-20T15:59:53.999Z,121.00
2023-01-20T16:02:43.832Z,139.60
2023-01-20T16:05:40.779Z,153.70
2023-01-20T16:08:42.385Z,166.20
2023-01-20T16:11:13.366Z,172.40
2023-01-20T16:13:44.869Z,154.20
2023-01-20T16:16:19.403Z,123.50
2023-01-20T16:19:11.574Z,92.70
2023-01-20T16:21:39.949Z,66.80
2023-01-20T16:24:08.288Z,63.70
2023-01-20T16:26:49.861Z,60.90
2023-01-20T16:29:28.143Z,55.70
2023-01-20T16:32:18.253Z,49.30
2023-01-20T16:35:08.162Z,42.40
2023-01-20T16:37:56.941Z,34.20
2023-01-20T16:40:31.417Z,33.40
2023-01-20T16:43:04.721Z,25.30
2023-01-20T16:45:54.535Z,27.00
2023-01-20T16:48:40.365Z,26.10
2023-01-20T16:51:12.567Z,20.60
2023-01-20T16:53:43.495Z,22.50
2023-01-20T16:56:15.876Z,18.60
2023-01-20T16:58:53.448Z,19.10
2023-01-20T17:01:54.098Z,18.80
2023-01-20T17:04:35.636Z,16.20
2023-01-20T17:07:15.499Z,15.10
2023-01-20T17:09:47.439Z,14.90
2023-01-20T17:12:29.533Z,15.20
2023-01-20T17:15:18.163Z,16.80
2023-01-20T17:18:02.652Z,18.00
2023-01-20T17:20:36.294Z,12.90
2023-01-20T17:23:07.618Z,14.00
2023-01-20T17:25:35.940Z,14.00
2023-01-20T17:28:14.573Z,14.00
2023-01-20T17:30:57.757Z,17.10
2023-01-20T17:33:31.737Z,11.70
2023-01-20T17:36:13.137Z,16.60
2023-01-20T17:38:50.313Z,13.20
2023-01-20T17:41:30.472Z,13.90
2023-01-20T17:44:19.763Z,13.40
2023-01-20T17:47:18.013Z,13.50
2023-01-20T17:49:54.787Z,16.80
2023-01-20T17:52:30.953Z,15.30
2023-01-20T17:55:44.467Z,14.40
2023-01-20T17:58:23.762Z,14.90
